Time;durP1;ratioP1;P1;durP2;ratioP2;P2;SDS_P1;SDS_P2;PMS_P1;PMS_P2;Temp;Humidity;BMP_temperature;BMP_pressure;BME280_temperature;BME280_humidity;BME280_pressure;Samples;Min_cycle;Max_cycle;Signal;HPM_P1;HPM_P2
2022/08/06 00:01:14;;;;;;;4.50;3.30;;;19.70;91.00;;;;;;5028915;28;20202;-70
2022/08/06 00:03:39;;;;;;;4.40;3.63;;;19.80;91.40;;;;;;5030937;28;20432;-70
2022/08/06 00:06:08;;;;;;;2.80;2.70;;;19.80;91.20;;;;;;5007945;28;20704;-71
2022/08/06 00:08:34;;;;;;;3.57;3.37;;;19.80;91.40;;;;;;5029991;28;20433;-71
2022/08/06 00:11:02;;;;;;;3.20;3.00;;;19.80;91.60;;;;;;5028812;28;20232;-70
2022/08/06 00:13:28;;;;;;;4.63;4.30;;;19.70;92.00;;;;;;5030190;28;20257;-71
2022/08/06 00:15:54;;;;;;;3.90;3.80;;;19.70;91.60;;;;;;5029431;28;20527;-70
2022/08/06 00:18:20;;;;;;;3.40;3.10;;;19.80;92.20;;;;;;5030202;28;20190;-71
2022/08/06 00:20:45;;;;;;;3.30;3.20;;;19.70;91.90;;;;;;5030504;28;20440;-70
2022/08/06 00:23:11;;;;;;;3.53;2.97;;;19.70;91.90;;;;;;5026924;28;20920;-70
2022/08/06 00:25:37;;;;;;;3.83;3.63;;;19.70;91.60;;;;;;5028170;28;20214;-70
2022/08/06 00:28:03;;;;;;;4.10;3.80;;;19.70;92.10;;;;;;5028120;28;20186;-70
2022/08/06 00:30:29;;;;;;;3.80;3.13;;;19.70;92.00;;;;;;5029006;28;20198;-70
2022/08/06 00:32:57;;;;;;;3.03;2.93;;;19.70;92.10;;;;;;5029594;28;20836;-70
2022/08/06 00:35:23;;;;;;;3.67;3.30;;;19.70;91.70;;;;;;5016267;28;20202;-70
2022/08/06 00:37:48;;;;;;;3.33;3.20;;;19.70;92.10;;;;;;5029577;28;20779;-73
2022/08/06 00:40:15;;;;;;;3.50;3.40;;;19.60;91.40;;;;;;5026331;28;20201;-71
2022/08/06 00:42:41;;;;;;;3.83;3.63;;;19.70;92.00;;;;;;5025860;28;20196;-71
2022/08/06 00:45:07;;;;;;;3.50;3.30;;;19.70;92.70;;;;;;5027591;28;20468;-70
2022/08/06 00:47:33;;;;;;;4.30;3.90;;;19.70;92.30;;;;;;5023098;28;20195;-70
2022/08/06 00:49:59;;;;;;;3.13;2.93;;;19.70;92.30;;;;;;5026903;28;20487;-69
2022/08/06 00:52:25;;;;;;;3.27;3.07;;;19.70;91.20;;;;;;5025948;28;20260;-71
2022/08/06 00:54:51;;;;;;;4.77;3.40;;;19.70;91.70;;;;;;5033689;28;20194;-73
2022/08/06 00:57:16;;;;;;;3.57;3.27;;;19.70;92.00;;;;;;5023058;28;20266;-71
2022/08/06 00:59:42;;;;;;;3.37;3.10;;;19.70;91.70;;;;;;5022942;28;20520;-71
2022/08/06 01:02:08;;;;;;;3.23;3.03;;;19.60;91.80;;;;;;5032361;28;20194;-71
2022/08/06 01:04:33;;;;;;;3.43;3.33;;;19.70;92.30;;;;;;5033445;28;20190;-70
2022/08/06 01:06:59;;;;;;;4.20;3.37;;;19.60;92.70;;;;;;5031802;28;20605;-71
2022/08/06 01:09:25;;;;;;;3.30;3.13;;;19.60;91.90;;;;;;5034831;28;20187;-71
2022/08/06 01:11:51;;;;;;;3.87;3.67;;;19.60;91.80;;;;;;5033445;28;20495;-72
2022/08/06 01:14:17;;;;;;;3.60;3.40;;;19.60;93.10;;;;;;5026909;28;20429;-71
2022/08/06 01:16:58;;;;;;;3.30;3.17;;;19.50;92.90;;;;;;5018576;28;20191;-71
2022/08/06 01:19:24;;;;;;;3.50;3.30;;;19.50;92.30;;;;;;5014582;28;20186;-71
2022/08/06 01:22:13;;;;;;;3.20;3.10;;;19.40;92.40;;;;;;5020941;28;20441;-72
2022/08/06 01:25:10;;;;;;;4.20;4.00;;;19.40;93.00;;;;;;5030641;28;20336;-71
2022/08/06 01:27:58;;;;;;;3.77;3.47;;;19.30;92.80;;;;;;5034729;28;20410;-70
2022/08/06 01:30:29;;;;;;;3.80;3.60;;;19.30;92.80;;;;;;5020190;28;20421;-70
2022/08/06 01:33:08;;;;;;;4.33;4.03;;;19.20;93.30;;;;;;5012597;28;20999;-71
2022/08/06 01:35:39;;;;;;;4.10;3.90;;;19.20;96.30;;;;;;5033508;28;20520;-70
2022/08/06 01:38:17;;;;;;;4.60;4.20;;;19.20;94.00;;;;;;5033618;28;20801;-71
2022/08/06 01:40:46;;;;;;;3.90;3.60;;;19.10;93.40;;;;;;5034335;28;20409;-70
2022/08/06 01:43:16;;;;;;;3.70;3.50;;;19.10;93.70;;;;;;5031132;28;20500;-71
2022/08/06 01:45:42;;;;;;;3.33;3.13;;;19.00;93.60;;;;;;5029505;28;20872;-72
2022/08/06 01:48:19;;;;;;;3.67;3.47;;;19.00;93.40;;;;;;5027863;28;20813;-70
2022/08/06 01:50:48;;;;;;;4.80;4.40;;;18.90;93.50;;;;;;5030873;28;21018;-70
2022/08/06 01:53:18;;;;;;;3.40;3.30;;;18.90;93.70;;;;;;5029913;28;20440;-70
2022/08/06 01:55:48;;;;;;;4.13;3.93;;;18.80;93.80;;;;;;5033969;28;20417;-70
2022/08/06 01:58:18;;;;;;;4.13;3.87;;;18.80;94.10;;;;;;5031868;28;20416;-71
2022/08/06 02:00:47;;;;;;;4.57;4.37;;;18.70;94.30;;;;;;5032320;28;20483;-70
2022/08/06 02:03:28;;;;;;;4.30;4.00;;;18.70;94.40;;;;;;5015864;28;20445;-71
2022/08/06 02:05:56;;;;;;;4.17;3.87;;;18.60;94.60;;;;;;5025730;28;20461;-72
2022/08/06 02:08:26;;;;;;;5.30;5.00;;;18.50;94.80;;;;;;5031458;28;20578;-71
2022/08/06 02:10:53;;;;;;;5.17;4.87;;;18.40;95.00;;;;;;5026441;28;20426;-71
2022/08/06 02:13:22;;;;;;;4.73;4.33;;;18.30;95.10;;;;;;5017646;28;20520;-70
2022/08/06 02:15:49;;;;;;;5.00;4.70;;;18.30;95.60;;;;;;5019001;28;20433;-71
2022/08/06 02:18:17;;;;;;;4.90;4.60;;;18.30;95.70;;;;;;5023890;28;20501;-71
2022/08/06 02:20:51;;;;;;;4.63;4.33;;;18.20;95.70;;;;;;5018043;28;20944;-71
2022/08/06 02:23:21;;;;;;;4.60;4.33;;;18.20;95.90;;;;;;5031898;28;21095;-72
2022/08/06 02:25:49;;;;;;;4.43;4.23;;;18.20;95.90;;;;;;5025037;28;20508;-71
2022/08/06 02:28:18;;;;;;;5.27;4.90;;;18.10;95.90;;;;;;5032920;28;20417;-71
2022/08/06 02:30:46;;;;;;;4.57;4.20;;;18.10;95.90;;;;;;5031025;28;20471;-70
2022/08/06 02:33:13;;;;;;;4.03;3.73;;;18.10;96.30;;;;;;5032156;28;20448;-71
2022/08/06 02:36:02;;;;;;;5.17;4.97;;;18.10;96.50;;;;;;5028538;28;20498;-71
2022/08/06 02:38:45;;;;;;;5.00;4.67;;;18.10;99.00;;;;;;5032307;28;20400;-71
2022/08/06 02:41:38;;;;;;;4.13;3.93;;;18.00;98.20;;;;;;5031073;28;20468;-71
2022/08/06 02:44:12;;;;;;;4.80;4.60;;;18.10;97.80;;;;;;5011343;28;20468;-71
2022/08/06 02:46:44;;;;;;;4.60;4.30;;;18.00;97.50;;;;;;5013076;28;20469;-70
2022/08/06 02:49:19;;;;;;;4.50;4.30;;;17.90;97.10;;;;;;5012532;28;20402;-71
2022/08/06 02:52:00;;;;;;;4.97;4.67;;;18.00;97.00;;;;;;5020984;28;20467;-71
2022/08/06 02:54:38;;;;;;;5.57;5.17;;;18.00;97.10;;;;;;5012881;28;20414;-72
2022/08/06 02:57:07;;;;;;;5.07;4.57;;;17.90;96.90;;;;;;5012122;28;20510;-71
2022/08/06 02:59:45;;;;;;;4.63;4.40;;;17.90;98.40;;;;;;5023815;28;20432;-71
2022/08/06 03:02:17;;;;;;;4.93;4.60;;;17.90;99.30;;;;;;5022357;28;20439;-71
2022/08/06 03:04:47;;;;;;;4.13;3.93;;;17.90;98.10;;;;;;5047960;28;20417;-72
2022/08/06 03:07:14;;;;;;;5.90;4.23;;;17.90;97.30;;;;;;5030855;28;20429;-71
2022/08/06 03:09:45;;;;;;;4.20;4.00;;;17.80;96.90;;;;;;5031310;28;20775;-71
2022/08/06 03:12:13;;;;;;;4.10;3.90;;;17.80;96.80;;;;;;5024177;28;20815;-71
2022/08/06 03:14:39;;;;;;;4.53;4.10;;;17.80;97.10;;;;;;5032139;28;20900;-70
2022/08/06 03:17:07;;;;;;;5.30;4.07;;;17.70;96.90;;;;;;5020353;28;20438;-70
2022/08/06 03:19:34;;;;;;;5.10;4.80;;;17.70;96.90;;;;;;5025793;28;20460;-70
2022/08/06 03:22:01;;;;;;;4.30;4.00;;;17.60;96.80;;;;;;5023768;28;20443;-73
2022/08/06 03:24:27;;;;;;;4.30;4.10;;;17.60;97.00;;;;;;5030999;28;20425;-70
2022/08/06 03:26:57;;;;;;;3.90;3.70;;;17.60;97.20;;;;;;5029466;28;20450;-72
2022/08/06 03:29:25;;;;;;;4.97;4.47;;;17.60;97.20;;;;;;5036869;28;20460;-71
2022/08/06 03:31:51;;;;;;;4.37;4.17;;;17.60;97.30;;;;;;5036610;28;20515;-70
2022/08/06 03:34:18;;;;;;;4.33;4.03;;;17.60;97.10;;;;;;5030228;28;20421;-71
2022/08/06 03:36:43;;;;;;;4.30;3.97;;;17.60;99.60;;;;;;5043913;28;20828;-71
2022/08/06 03:39:11;;;;;;;4.57;4.27;;;17.60;98.90;;;;;;5051373;28;20416;-71
2022/08/06 03:41:39;;;;;;;4.60;4.10;;;17.60;97.60;;;;;;5020168;28;23459;-71
2022/08/06 03:44:05;;;;;;;3.90;3.70;;;17.50;97.30;;;;;;5028285;28;20817;-71
2022/08/06 03:46:40;;;;;;;4.33;4.13;;;17.40;97.00;;;;;;5027563;28;20433;-70
2022/08/06 03:49:11;;;;;;;4.27;4.00;;;17.40;97.10;;;;;;5011720;28;20416;-71
2022/08/06 03:51:39;;;;;;;4.43;4.23;;;17.30;96.90;;;;;;5017672;28;20480;-70
2022/08/06 03:54:06;;;;;;;4.47;4.17;;;17.30;97.10;;;;;;5037039;28;21005;-70
2022/08/06 03:56:35;;;;;;;4.80;4.50;;;17.20;97.30;;;;;;5049396;28;20460;-70
2022/08/06 03:59:03;;;;;;;4.17;3.97;;;17.10;97.30;;;;;;5039216;28;20436;-73
2022/08/06 04:01:34;;;;;;;4.40;4.10;;;17.10;97.80;;;;;;5042150;28;20512;-71
2022/08/06 04:04:01;;;;;;;5.30;4.80;;;17.10;98.20;;;;;;5016070;28;20475;-73
2022/08/06 04:06:29;;;;;;;5.20;4.90;;;17.00;98.00;;;;;;5029057;28;20491;-70
2022/08/06 04:08:55;;;;;;;5.30;4.90;;;17.00;97.90;;;;;;5031583;28;20752;-71
2022/08/06 04:11:21;;;;;;;5.23;4.83;;;17.00;98.00;;;;;;5037509;28;20950;-71
2022/08/06 04:13:48;;;;;;;5.23;4.90;;;17.00;98.10;;;;;;5031720;28;20476;-71
2022/08/06 04:16:15;;;;;;;5.27;4.90;;;17.00;98.00;;;;;;5019726;28;20501;-71
2022/08/06 04:18:43;;;;;;;4.60;4.30;;;17.00;97.90;;;;;;5012222;28;20532;-71
2022/08/06 04:21:16;;;;;;;5.00;4.37;;;17.00;97.70;;;;;;5025553;28;20765;-71
2022/08/06 04:23:42;;;;;;;4.63;4.43;;;16.90;97.60;;;;;;5026457;28;20894;-70
2022/08/06 04:26:11;;;;;;;5.23;4.80;;;16.90;98.20;;;;;;5036876;28;20464;-71
2022/08/06 04:28:41;;;;;;;4.60;4.40;;;16.90;98.20;;;;;;5032468;28;20463;-70
2022/08/06 04:31:08;;;;;;;4.57;4.37;;;16.90;98.00;;;;;;5035168;28;20436;-71
2022/08/06 04:33:39;;;;;;;4.67;4.47;;;16.90;98.40;;;;;;5034033;28;20476;-71
2022/08/06 04:36:06;;;;;;;5.63;5.23;;;16.90;98.40;;;;;;5036499;28;20951;-71
2022/08/06 04:38:33;;;;;;;4.67;4.23;;;16.90;98.10;;;;;;5041647;28;20492;-69
2022/08/06 04:41:00;;;;;;;4.60;4.33;;;16.90;98.40;;;;;;5023415;28;20938;-70
2022/08/06 04:43:26;;;;;;;4.50;4.20;;;16.90;98.60;;;;;;5037734;28;20522;-70
2022/08/06 04:45:53;;;;;;;4.73;4.43;;;16.90;98.50;;;;;;5032159;28;20433;-70
2022/08/06 04:48:19;;;;;;;4.30;4.00;;;17.00;98.40;;;;;;5019129;28;20407;-70
2022/08/06 04:50:45;;;;;;;5.63;5.07;;;17.00;98.40;;;;;;5054288;28;20464;-71
2022/08/06 04:53:16;;;;;;;5.17;4.80;;;17.00;98.60;;;;;;5036315;28;20494;-70
2022/08/06 04:55:43;;;;;;;4.87;4.67;;;17.00;98.40;;;;;;5034559;28;21033;-69
2022/08/06 04:58:10;;;;;;;4.37;4.17;;;17.00;98.60;;;;;;5029936;28;20936;-70
2022/08/06 05:00:42;;;;;;;4.50;4.20;;;17.00;98.80;;;;;;5021102;28;20452;-72
2022/08/06 05:03:07;;;;;;;4.60;4.40;;;17.00;98.60;;;;;;5036087;28;20459;-72
2022/08/06 05:05:54;;;;;;;5.30;4.90;;;17.00;98.20;;;;;;5036226;28;21101;-72
2022/08/06 05:08:23;;;;;;;5.47;4.97;;;17.10;98.30;;;;;;5038348;28;20545;-71
2022/08/06 05:10:56;;;;;;;5.27;4.97;;;16.90;98.10;;;;;;5033013;28;20433;-69
2022/08/06 05:13:23;;;;;;;5.90;5.30;;;16.80;98.40;;;;;;5029166;28;20432;-70
2022/08/06 05:15:56;;;;;;;5.50;5.20;;;16.70;98.70;;;;;;5027541;28;20470;-71
2022/08/06 05:18:32;;;;;;;5.30;5.10;;;16.70;99.20;;;;;;5028450;28;20444;-70
2022/08/06 05:20:59;;;;;;;5.57;5.27;;;16.70;99.80;;;;;;5030832;28;20436;-70
2022/08/06 05:23:35;;;;;;;5.63;5.23;;;16.80;99.70;;;;;;5034512;28;20510;-70
2022/08/06 05:26:01;;;;;;;5.70;5.20;;;16.90;99.40;;;;;;5041773;28;20421;-70
2022/08/06 05:28:26;;;;;;;5.73;5.43;;;16.90;99.10;;;;;;5029783;28;20512;-70
2022/08/06 05:30:55;;;;;;;6.33;5.80;;;16.70;99.20;;;;;;5026782;28;20457;-72
2022/08/06 05:33:30;;;;;;;6.27;5.87;;;16.60;99.90;;;;;;5024912;28;20462;-71
2022/08/06 05:35:58;;;;;;;5.40;5.10;;;16.70;99.90;;;;;;5028242;28;20475;-72
2022/08/06 05:38:25;;;;;;;6.03;5.50;;;16.80;99.90;;;;;;5027536;28;20476;-72
2022/08/06 05:40:52;;;;;;;4.93;4.60;;;17.00;99.90;;;;;;5026632;28;20426;-72
2022/08/06 05:43:21;;;;;;;5.27;4.90;;;17.00;99.60;;;;;;5021993;28;20459;-72
2022/08/06 05:45:53;;;;;;;5.80;5.30;;;17.00;99.60;;;;;;5025880;28;20433;-71
2022/08/06 05:48:20;;;;;;;5.47;5.10;;;17.10;99.90;;;;;;5025807;28;20513;-73
2022/08/06 05:51:02;;;;;;;5.67;5.13;;;17.10;99.90;;;;;;5027183;28;20527;-72
2022/08/06 05:53:38;;;;;;;6.30;5.80;;;17.20;99.90;;;;;;5019824;28;20560;-71
2022/08/06 05:56:12;;;;;;;6.83;6.13;;;17.30;99.90;;;;;;5036440;28;20948;-71
2022/08/06 05:58:56;;;;;;;6.13;5.73;;;17.40;99.70;;;;;;5031667;28;20796;-71
2022/08/06 06:01:23;;;;;;;5.90;5.50;;;17.40;99.40;;;;;;5026163;28;20435;-72
2022/08/06 06:03:53;;;;;;;6.00;5.63;;;17.50;99.80;;;;;;5041397;28;20750;-71
2022/08/06 06:06:21;;;;;;;6.07;5.67;;;17.40;99.10;;;;;;5030251;28;20588;-71
2022/08/06 06:08:47;;;;;;;5.50;5.20;;;17.40;99.90;;;;;;5033420;28;20946;-71
2022/08/06 06:11:13;;;;;;;5.97;5.60;;;17.50;99.90;;;;;;5032821;28;20437;-71
2022/08/06 06:13:43;;;;;;;5.80;5.20;;;17.60;99.90;;;;;;5033044;28;20547;-71
2022/08/06 06:16:12;;;;;;;5.73;5.33;;;17.60;99.40;;;;;;5029990;28;20476;-73
2022/08/06 06:18:41;;;;;;;5.50;5.20;;;17.70;99.20;;;;;;5031746;28;20436;-72
2022/08/06 06:21:28;;;;;;;5.33;5.03;;;17.70;98.70;;;;;;5026668;28;20475;-70
2022/08/06 06:24:01;;;;;;;7.33;5.53;;;17.70;98.70;;;;;;5033101;28;20463;-70
2022/08/06 06:26:45;;;;;;;5.80;5.20;;;17.70;99.40;;;;;;5021844;28;20491;-70
2022/08/06 06:29:43;;;;;;;5.80;5.40;;;17.80;99.80;;;;;;5030429;28;20536;-73
2022/08/06 06:32:39;;;;;;;5.13;4.83;;;17.90;99.90;;;;;;5009564;28;20442;-74
2022/08/06 06:35:23;;;;;;;5.90;5.30;;;18.00;99.70;;;;;;5030779;28;20464;-72
2022/08/06 06:38:22;;;;;;;9.10;5.60;;;18.30;99.90;;;;;;5016511;28;20507;-72
2022/08/06 06:41:06;;;;;;;5.43;5.03;;;18.30;99.80;;;;;;5026519;28;20437;-73
2022/08/06 06:43:51;;;;;;;5.73;5.33;;;18.40;99.20;;;;;;5028482;28;21320;-72
2022/08/06 06:46:41;;;;;;;5.60;5.20;;;18.50;99.30;;;;;;5031221;28;20447;-72
2022/08/06 06:49:15;;;;;;;6.33;5.83;;;18.60;99.30;;;;;;5030202;28;20528;-72
2022/08/06 06:51:46;;;;;;;5.87;5.43;;;18.70;99.90;;;;;;5028291;28;20472;-72
2022/08/06 06:54:27;;;;;;;6.00;5.40;;;18.80;99.30;;;;;;5028132;28;20448;-73
2022/08/06 06:56:56;;;;;;;5.57;5.27;;;18.80;98.10;;;;;;5014868;28;20567;-72
2022/08/06 06:59:35;;;;;;;7.00;5.27;;;18.90;99.90;;;;;;5024461;28;20444;-72
2022/08/06 07:02:03;;;;;;;6.10;5.50;;;19.20;99.90;;;;;;5031778;28;20433;-72
2022/08/06 07:04:30;;;;;;;7.43;5.63;;;20.10;99.90;;;;;;5028304;28;20472;-71
2022/08/06 07:06:58;;;;;;;5.80;5.27;;;20.80;99.90;;;;;;5029906;28;20475;-72
2022/08/06 07:09:28;;;;;;;9.20;5.80;;;21.20;99.90;;;;;;5022790;28;20433;-72
2022/08/06 07:11:56;;;;;;;50.33;45.13;;;21.70;99.30;;;;;;5015602;28;20914;-74
2022/08/06 07:14:23;;;;;;;233.53;184.63;;;22.00;96.20;;;;;;5038368;28;20799;-73
2022/08/06 07:16:53;;;;;;;556.63;384.50;;;22.20;93.30;;;;;;5027210;28;20460;-74
2022/08/06 07:19:19;;;;;;;66.87;46.63;;;22.30;92.10;;;;;;5029688;28;20421;-71
2022/08/06 07:21:47;;;;;;;7.67;5.97;;;22.30;92.70;;;;;;5028608;28;20528;-74
2022/08/06 07:24:15;;;;;;;4.83;4.43;;;22.50;91.50;;;;;;5029380;28;20995;-74
2022/08/06 07:26:49;;;;;;;5.00;4.70;;;22.50;91.40;;;;;;5025797;28;20443;-74
2022/08/06 07:29:16;;;;;;;6.60;6.00;;;22.60;91.40;;;;;;5028415;28;20444;-74
2022/08/06 07:31:43;;;;;;;4.20;3.80;;;22.60;90.20;;;;;;5041620;28;20447;-74
2022/08/06 07:34:09;;;;;;;4.10;3.90;;;22.70;90.70;;;;;;5025561;28;20474;-71
2022/08/06 07:36:40;;;;;;;4.30;3.90;;;22.80;88.60;;;;;;5027047;28;20213;-71
2022/08/06 07:39:11;;;;;;;6.17;4.03;;;22.70;87.50;;;;;;5038615;28;20436;-71
2022/08/06 07:41:38;;;;;;;5.77;4.83;;;22.50;87.30;;;;;;5021658;28;20441;-71
2022/08/06 07:44:06;;;;;;;3.60;3.40;;;22.30;87.80;;;;;;5021323;28;20491;-71
2022/08/06 07:46:48;;;;;;;4.20;3.80;;;22.10;86.00;;;;;;5024520;28;20455;-77
2022/08/06 07:49:16;;;;;;;3.60;3.30;;;21.80;86.20;;;;;;5018116;28;20433;-71
2022/08/06 07:51:44;;;;;;;5.13;3.47;;;21.70;88.40;;;;;;5020352;28;20476;-73
2022/08/06 07:54:10;;;;;;;4.07;3.87;;;21.50;89.10;;;;;;5026781;28;20908;-72
2022/08/06 07:56:39;;;;;;;3.93;3.50;;;21.40;89.40;;;;;;5012712;28;20527;-71
2022/08/06 07:59:06;;;;;;;4.13;3.83;;;21.30;89.00;;;;;;5024892;28;20440;-72
2022/08/06 08:01:32;;;;;;;4.20;3.57;;;21.20;90.20;;;;;;5018660;28;20437;-72
2022/08/06 08:06:46;;;;;;;3.37;3.17;;;21.00;91.50;;;;;;5017020;28;20434;-75
2022/08/06 08:09:15;;;;;;;3.67;3.37;;;20.90;90.50;;;;;;5022885;28;20436;-74
2022/08/06 08:11:42;;;;;;;3.13;2.93;;;20.90;90.40;;;;;;5021736;28;20437;-72
2022/08/06 08:14:10;;;;;;;3.43;3.13;;;20.80;92.20;;;;;;5026968;28;20441;-72
2022/08/06 08:16:37;;;;;;;3.00;2.80;;;20.80;91.90;;;;;;5026865;28;20756;-74
2022/08/06 08:19:19;;;;;;;4.17;3.87;;;20.80;91.60;;;;;;5021605;28;20444;-72
2022/08/06 08:21:44;;;;;;;3.60;3.00;;;20.70;91.50;;;;;;5032588;28;20429;-73
2022/08/06 08:24:11;;;;;;;3.43;3.33;;;20.70;91.50;;;;;;5033311;28;20922;-71
2022/08/06 08:26:36;;;;;;;3.27;3.10;;;20.70;90.70;;;;;;5023555;28;20187;-70
2022/08/06 08:29:02;;;;;;;3.40;3.20;;;20.80;91.10;;;;;;5023998;28;20440;-70
2022/08/06 08:31:28;;;;;;;5.73;3.20;;;20.80;89.70;;;;;;5029601;28;20181;-73
2022/08/06 08:33:53;;;;;;;3.33;3.13;;;20.80;89.10;;;;;;5030223;28;20277;-71
2022/08/06 08:36:20;;;;;;;4.03;3.73;;;20.90;91.10;;;;;;5022044;28;20202;-72
2022/08/06 08:38:46;;;;;;;5.70;4.00;;;21.00;91.20;;;;;;5023765;28;20212;-72
2022/08/06 08:41:17;;;;;;;65.40;52.97;;;21.10;92.00;;;;;;5039171;28;20445;-72
2022/08/06 08:43:49;;;;;;;51.10;39.57;;;21.40;92.90;;;;;;5034898;28;20270;-71
2022/08/06 08:46:17;;;;;;;15.23;12.50;;;21.60;91.60;;;;;;5038132;28;20442;-72
2022/08/06 08:48:43;;;;;;;4.80;4.50;;;21.80;90.50;;;;;;5038248;28;20532;-71
2022/08/06 08:51:12;;;;;;;3.40;3.20;;;22.10;91.30;;;;;;5028300;28;20464;-70
2022/08/06 08:53:52;;;;;;;3.13;2.93;;;22.30;85.80;;;;;;5021229;28;20437;-71
2022/08/06 08:56:18;;;;;;;2.97;2.80;;;22.50;84.00;;;;;;5021632;28;20718;-74
2022/08/06 08:58:44;;;;;;;3.43;3.03;;;22.70;83.60;;;;;;5034764;28;20437;-76
2022/08/06 09:01:10;;;;;;;2.80;2.70;;;22.70;78.10;;;;;;5023342;28;20436;-71
2022/08/06 09:03:38;;;;;;;3.17;3.00;;;22.70;78.00;;;;;;5028854;28;20429;-71
2022/08/06 09:06:05;;;;;;;3.13;2.93;;;22.70;77.50;;;;;;5031593;28;20528;-77
2022/08/06 09:08:31;;;;;;;3.30;3.10;;;22.70;79.30;;;;;;5033002;28;20928;-71
2022/08/06 09:10:58;;;;;;;2.80;2.70;;;22.80;81.20;;;;;;5031338;28;21111;-70
2022/08/06 09:13:25;;;;;;;2.63;2.53;;;22.80;77.30;;;;;;5019460;28;20775;-71
2022/08/06 09:15:52;;;;;;;3.43;2.63;;;23.00;82.00;;;;;;5026237;28;20539;-71
2022/08/06 09:18:23;;;;;;;2.93;2.70;;;23.10;80.80;;;;;;5033462;28;20515;-74
2022/08/06 09:20:49;;;;;;;3.10;2.90;;;23.30;82.00;;;;;;5034391;28;20425;-71
2022/08/06 09:23:16;;;;;;;2.50;2.40;;;23.50;81.20;;;;;;5025568;28;20436;-71
2022/08/06 09:25:47;;;;;;;2.77;2.50;;;23.60;78.20;;;;;;5028945;28;21343;-72
2022/08/06 09:28:32;;;;;;;4.10;2.30;;;23.70;78.40;;;;;;5023382;28;20926;-71
2022/08/06 09:31:06;;;;;;;2.73;2.60;;;23.70;75.30;;;;;;5030913;28;20436;-71
2022/08/06 09:33:34;;;;;;;3.20;3.00;;;23.60;74.10;;;;;;5022017;28;20437;-71
2022/08/06 09:36:02;;;;;;;2.87;2.33;;;23.50;75.40;;;;;;5024750;28;20574;-71
2022/08/06 09:38:29;;;;;;;2.83;2.63;;;23.30;75.10;;;;;;5031768;28;20586;-71
2022/08/06 09:41:09;;;;;;;3.10;2.80;;;23.20;75.60;;;;;;5018259;28;20434;-71
2022/08/06 09:43:36;;;;;;;2.90;2.70;;;23.00;74.50;;;;;;5029360;28;20445;-72
2022/08/06 09:46:02;;;;;;;3.23;2.40;;;22.90;77.70;;;;;;5025038;28;20444;-71
2022/08/06 09:48:28;;;;;;;3.00;2.53;;;22.90;78.80;;;;;;5021106;28;20430;-71
2022/08/06 09:50:54;;;;;;;2.67;2.50;;;22.90;78.60;;;;;;5020030;28;20484;-71
2022/08/06 09:53:23;;;;;;;2.87;2.50;;;22.90;78.10;;;;;;5030029;28;20187;-74
2022/08/06 09:55:54;;;;;;;2.70;2.50;;;22.80;80.20;;;;;;5021226;28;20206;-72
2022/08/06 09:58:31;;;;;;;2.70;2.60;;;22.80;80.60;;;;;;5023345;28;20515;-72
2022/08/06 10:01:10;;;;;;;2.67;2.47;;;22.80;79.40;;;;;;5019684;28;21053;-71
2022/08/06 10:03:40;;;;;;;2.40;2.30;;;22.80;77.90;;;;;;5029392;28;20425;-71
2022/08/06 10:06:11;;;;;;;2.97;2.77;;;22.70;77.70;;;;;;5031516;28;20499;-71
2022/08/06 10:08:38;;;;;;;2.90;2.70;;;22.70;79.30;;;;;;5028679;28;20440;-71
2022/08/06 10:11:04;;;;;;;2.70;2.60;;;22.80;79.00;;;;;;5033174;28;20924;-70
2022/08/06 10:13:32;;;;;;;2.70;2.50;;;22.90;78.30;;;;;;5033229;28;20417;-71
2022/08/06 10:16:17;;;;;;;3.30;3.10;;;23.10;76.40;;;;;;5033281;28;20792;-71
2022/08/06 10:18:48;;;;;;;3.13;2.93;;;23.20;77.10;;;;;;5021046;28;21072;-71
2022/08/06 10:21:17;;;;;;;2.60;2.50;;;23.40;72.70;;;;;;5032398;28;20420;-71
2022/08/06 10:23:49;;;;;;;2.70;2.60;;;23.60;75.80;;;;;;5029567;28;20447;-71
2022/08/06 10:26:21;;;;;;;2.67;2.57;;;23.70;73.00;;;;;;5026660;28;20464;-71
2022/08/06 10:28:48;;;;;;;2.70;2.50;;;23.90;74.70;;;;;;5032914;28;20437;-70
2022/08/06 10:31:15;;;;;;;3.20;2.90;;;24.10;72.60;;;;;;5032211;28;20431;-72
2022/08/06 10:34:02;;;;;;;2.80;2.70;;;24.20;70.00;;;;;;5031032;28;20463;-71
2022/08/06 10:36:39;;;;;;;2.80;2.60;;;24.20;68.00;;;;;;5032212;28;20461;-71
2022/08/06 10:39:05;;;;;;;2.30;2.30;;;24.10;66.90;;;;;;5032809;28;20413;-71
2022/08/06 10:41:34;;;;;;;2.83;2.73;;;24.00;64.30;;;;;;5031155;28;20463;-71
2022/08/06 10:44:02;;;;;;;4.97;2.90;;;23.90;66.40;;;;;;5033416;28;20413;-71
2022/08/06 10:46:28;;;;;;;2.93;2.83;;;23.70;66.60;;;;;;5031921;28;20433;-71
2022/08/06 10:48:54;;;;;;;2.90;2.80;;;23.60;68.10;;;;;;5029188;28;20796;-71
2022/08/06 10:51:21;;;;;;;3.30;3.10;;;23.60;71.40;;;;;;5032819;28;20452;-71
2022/08/06 10:53:47;;;;;;;2.30;2.23;;;23.70;71.10;;;;;;5032233;28;20429;-71
2022/08/06 10:56:15;;;;;;;2.60;2.50;;;23.70;69.00;;;;;;5032337;28;20457;-71
2022/08/06 10:58:41;;;;;;;2.80;2.60;;;23.80;67.40;;;;;;5022470;28;20245;-71
2022/08/06 11:01:35;;;;;;;2.80;2.70;;;23.60;68.30;;;;;;5012947;28;20421;-71
2022/08/06 11:04:12;;;;;;;2.90;2.80;;;23.50;65.50;;;;;;5027443;28;20433;-71
2022/08/06 11:06:53;;;;;;;2.90;2.80;;;23.30;66.40;;;;;;5029681;28;20778;-71
2022/08/06 11:09:45;;;;;;;2.80;2.70;;;23.10;64.80;;;;;;5032659;28;20429;-71
2022/08/06 11:12:19;;;;;;;2.93;2.70;;;23.00;61.90;;;;;;5032701;28;20389;-71
2022/08/06 11:14:46;;;;;;;2.50;2.30;;;23.00;64.20;;;;;;5031134;28;20420;-71
2022/08/06 11:17:12;;;;;;;3.20;3.10;;;23.10;63.70;;;;;;5029925;28;20897;-71
2022/08/06 11:19:40;;;;;;;2.60;2.40;;;23.30;66.50;;;;;;5025766;28;20438;-71
2022/08/06 11:22:06;;;;;;;3.23;3.10;;;23.50;65.00;;;;;;5012842;28;20414;-71
2022/08/06 11:24:32;;;;;;;3.20;3.10;;;23.80;66.10;;;;;;5028193;28;20429;-71
2022/08/06 11:26:58;;;;;;;4.10;3.30;;;24.00;65.00;;;;;;5032249;28;20424;-71
2022/08/06 11:29:24;;;;;;;3.97;3.77;;;24.00;63.10;;;;;;5032030;28;20421;-71
2022/08/06 11:31:51;;;;;;;3.67;3.47;;;23.90;62.30;;;;;;5031944;28;20178;-71
2022/08/06 11:34:18;;;;;;;3.00;2.90;;;23.90;62.80;;;;;;5032032;28;20205;-71
2022/08/06 11:36:58;;;;;;;3.67;3.57;;;23.70;63.00;;;;;;5026526;28;20996;-71
2022/08/06 11:39:27;;;;;;;4.50;3.80;;;23.60;63.20;;;;;;5030907;28;20425;-71
2022/08/06 11:41:54;;;;;;;3.10;3.00;;;23.50;63.00;;;;;;5030556;28;20437;-71
2022/08/06 11:44:22;;;;;;;3.00;2.90;;;23.40;62.20;;;;;;5031822;28;20420;-71
2022/08/06 11:46:49;;;;;;;3.20;3.10;;;23.30;63.90;;;;;;5029793;28;20429;-71
2022/08/06 11:49:21;;;;;;;4.00;3.70;;;23.30;63.70;;;;;;5030771;28;20508;-71
2022/08/06 11:51:52;;;;;;;3.50;3.40;;;23.30;66.10;;;;;;5031373;28;21172;-71
2022/08/06 11:54:18;;;;;;;3.70;3.50;;;23.50;65.10;;;;;;5030599;28;20405;-71
2022/08/06 11:57:06;;;;;;;3.60;3.50;;;23.60;69.70;;;;;;5026428;28;20471;-71
2022/08/06 11:59:34;;;;;;;3.37;3.27;;;23.60;66.30;;;;;;5031108;28;20187;-72
2022/08/06 12:02:01;;;;;;;3.33;3.13;;;23.60;66.70;;;;;;5032195;28;20817;-71
2022/08/06 12:04:39;;;;;;;2.77;2.67;;;23.60;67.10;;;;;;5031847;28;20421;-72
2022/08/06 12:07:24;;;;;;;2.73;2.63;;;23.50;59.90;;;;;;5032148;28;20574;-71
2022/08/06 12:10:12;;;;;;;2.60;2.50;;;23.40;58.20;;;;;;5028094;28;20431;-71
2022/08/06 12:12:42;;;;;;;2.40;2.40;;;23.60;59.70;;;;;;5026798;28;20431;-71
2022/08/06 12:15:22;;;;;;;2.40;2.30;;;23.60;59.10;;;;;;4996862;28;20433;-71
2022/08/06 12:17:54;;;;;;;2.90;2.70;;;23.90;67.70;;;;;;5030871;28;21065;-72
2022/08/06 12:20:28;;;;;;;3.10;3.00;;;24.30;65.70;;;;;;5031826;28;20417;-71
2022/08/06 12:22:54;;;;;;;3.30;3.20;;;24.60;64.90;;;;;;5030837;28;20432;-71
2022/08/06 12:25:20;;;;;;;3.60;3.50;;;24.80;60.70;;;;;;5031591;28;20421;-71
2022/08/06 12:27:46;;;;;;;3.20;3.10;;;24.80;59.90;;;;;;5029509;28;20217;-71
2022/08/06 12:30:12;;;;;;;3.13;3.03;;;24.90;59.10;;;;;;5023073;28;20422;-71
2022/08/06 12:32:39;;;;;;;2.90;2.83;;;25.00;56.20;;;;;;5030929;28;20826;-71
2022/08/06 12:35:10;;;;;;;3.00;2.90;;;25.10;56.40;;;;;;5031502;28;20433;-72
2022/08/06 12:37:43;;;;;;;3.00;2.90;;;25.30;59.20;;;;;;5031049;28;20413;-72
2022/08/06 12:40:28;;;;;;;2.90;2.80;;;25.50;56.90;;;;;;5031201;28;20417;-71
2022/08/06 12:43:00;;;;;;;2.83;2.73;;;25.60;55.80;;;;;;5031033;28;20412;-71
2022/08/06 12:45:28;;;;;;;3.07;2.97;;;25.30;51.50;;;;;;5031558;28;20812;-71
2022/08/06 12:48:05;;;;;;;3.10;3.00;;;25.20;55.70;;;;;;5012915;28;20438;-71
2022/08/06 12:50:33;;;;;;;3.50;3.40;;;25.10;57.00;;;;;;5026172;28;20476;-73
2022/08/06 12:53:12;;;;;;;3.10;3.00;;;25.00;56.80;;;;;;5017804;28;20480;-72
2022/08/06 12:55:52;;;;;;;2.70;2.60;;;24.80;57.10;;;;;;5033696;28;20535;-71
2022/08/06 12:58:32;;;;;;;7.27;6.57;;;24.70;54.50;;;;;;5035045;28;20427;-71
2022/08/06 13:01:00;;;;;;;7.13;4.90;;;24.50;55.50;;;;;;5034716;28;20413;-71
2022/08/06 13:03:26;;;;;;;4.50;4.10;;;24.40;58.00;;;;;;5033576;28;20464;-71
2022/08/06 13:05:58;;;;;;;5.53;5.10;;;24.50;57.90;;;;;;5034265;28;20428;-71